createdAt,value
2022-11-16T00:00:02.888Z,22.6
2022-11-16T00:01:08.014Z,22.6
2022-11-16T00:02:09.906Z,22.6
2022-11-16T00:03:11.930Z,22.6
2022-11-16T00:04:13.506Z,22.6
2022-11-16T00:05:15.387Z,22.6
2022-11-16T00:06:17.101Z,22.6
2022-11-16T00:07:18.852Z,22.6
2022-11-16T00:08:20.862Z,22.6
2022-11-16T00:09:22.514Z,22.6
2022-11-16T00:10:24.252Z,22.6
2022-11-16T00:11:26.006Z,22.6
2022-11-16T00:12:27.750Z,22.6
2022-11-16T00:13:29.497Z,22.6
2022-11-16T00:14:31.245Z,22.6
2022-11-16T00:15:32.990Z,22.6
2022-11-16T00:16:34.738Z,22.6
2022-11-16T00:17:36.389Z,22.6
2022-11-16T00:18:38.136Z,22.6
2022-11-16T00:19:39.792Z,22.7
2022-11-16T00:20:41.700Z,22.6
2022-11-16T00:21:43.381Z,22.6
2022-11-16T00:22:44.995Z,22.6
2022-11-16T00:23:46.868Z,22.6
2022-11-16T00:24:48.518Z,22.6
2022-11-16T00:25:50.064Z,22.6
2022-11-16T00:26:51.704Z,22.6
2022-11-16T00:27:53.325Z,22.6
2022-11-16T00:28:54.893Z,22.6
2022-11-16T00:29:56.641Z,22.6
2022-11-16T00:30:58.490Z,22.6
2022-11-16T00:32:00.336Z,22.6
2022-11-16T00:33:02.084Z,22.6
2022-11-16T00:34:03.740Z,22.6
2022-11-16T00:35:05.447Z,22.6
2022-11-16T00:36:07.329Z,22.5
2022-11-16T00:37:09.074Z,22.6
2022-11-16T00:38:10.827Z,22.5
2022-11-16T00:39:12.469Z,22.5
2022-11-16T00:40:14.168Z,22.5
2022-11-16T00:41:15.879Z,22.6
2022-11-16T00:42:17.612Z,22.6
2022-11-16T00:43:19.225Z,22.6
2022-11-16T00:44:20.855Z,22.6
2022-11-16T00:45:22.648Z,22.6
2022-11-16T00:46:24.294Z,22.5
2022-11-16T00:47:25.944Z,22.6
2022-11-16T00:48:27.581Z,22.6
2022-11-16T00:49:29.332Z,22.6
2022-11-16T00:50:31.108Z,22.6
2022-11-16T00:51:32.927Z,22.6
2022-11-16T00:52:34.677Z,22.6
2022-11-16T00:53:36.248Z,22.5
2022-11-16T00:54:37.967Z,22.6
2022-11-16T00:55:39.722Z,22.6
2022-11-16T00:56:41.474Z,22.6
2022-11-16T00:57:43.118Z,22.6
2022-11-16T00:58:44.932Z,22.5
2022-11-16T00:59:46.811Z,22.6
2022-11-16T01:00:48.622Z,22.5
2022-11-16T01:01:50.426Z,22.5
2022-11-16T01:02:52.255Z,22.5
2022-11-16T01:03:54.001Z,22.5
2022-11-16T01:04:55.589Z,22.5
2022-11-16T01:05:57.205Z,22.5
2022-11-16T01:06:59.210Z,22.5
2022-11-16T01:08:01.099Z,22.5
2022-11-16T01:09:02.826Z,22.5
2022-11-16T01:10:04.679Z,22.5
2022-11-16T01:11:06.545Z,22.5
2022-11-16T01:12:08.191Z,22.5
2022-11-16T01:13:09.845Z,22.5
2022-11-16T01:14:11.682Z,22.5
2022-11-16T01:15:13.417Z,22.5
2022-11-16T01:16:15.177Z,22.5
2022-11-16T01:17:16.827Z,22.5
2022-11-16T01:18:18.437Z,22.5
2022-11-16T01:19:20.117Z,22.5
2022-11-16T01:20:21.765Z,22.5
2022-11-16T01:21:23.577Z,22.5
2022-11-16T01:22:25.368Z,22.5
2022-11-16T01:23:26.949Z,22.5
2022-11-16T01:24:28.760Z,22.5
2022-11-16T01:25:30.499Z,22.5
2022-11-16T01:26:32.129Z,22.5
2022-11-16T01:27:33.787Z,22.5
2022-11-16T01:28:36.383Z,22.5
2022-11-16T01:29:38.923Z,22.5
2022-11-16T01:30:40.470Z,22.5
2022-11-16T01:31:42.156Z,22.5
2022-11-16T01:32:43.827Z,22.5
2022-11-16T01:33:45.403Z,22.5
2022-11-16T01:34:47.043Z,22.5
2022-11-16T01:35:48.742Z,22.5
2022-11-16T01:36:50.363Z,22.4
2022-11-16T01:37:52.193Z,22.5
2022-11-16T01:38:53.834Z,22.5
2022-11-16T01:39:55.687Z,22.5
2022-11-16T01:40:57.402Z,22.4
2022-11-16T01:41:59.075Z,22.5
2022-11-16T01:43:00.823Z,22.4
2022-11-16T01:44:02.541Z,22.5
2022-11-16T01:45:04.419Z,22.5
2022-11-16T01:46:06.069Z,22.5
2022-11-16T01:47:07.886Z,22.5
2022-11-16T01:48:09.777Z,22.5
2022-11-16T01:49:11.763Z,22.5
2022-11-16T01:50:13.566Z,22.5
2022-11-16T01:51:15.159Z,22.5
2022-11-16T01:52:16.992Z,22.5
2022-11-16T01:53:18.812Z,22.5
2022-11-16T01:54:20.509Z,22.5
2022-11-16T01:55:22.310Z,22.5
2022-11-16T01:56:24.104Z,22.5
2022-11-16T01:57:25.739Z,22.5
2022-11-16T01:58:27.347Z,22.5
2022-11-16T01:59:29.105Z,22.5
2022-11-16T02:00:30.719Z,22.5
2022-11-16T02:01:32.560Z,22.5
2022-11-16T02:02:34.384Z,22.5
2022-11-16T02:03:35.980Z,22.5
2022-11-16T02:04:37.727Z,22.5
2022-11-16T02:05:39.518Z,22.5
2022-11-16T02:06:41.126Z,22.5
2022-11-16T02:07:43.100Z,22.5
2022-11-16T02:08:44.931Z,22.5
2022-11-16T02:09:46.649Z,22.5
2022-11-16T02:10:48.421Z,22.5
2022-11-16T02:11:50.063Z,22.5
2022-11-16T02:12:51.815Z,22.5
2022-11-16T02:13:53.530Z,22.5
2022-11-16T02:14:55.308Z,22.5
2022-11-16T02:15:56.950Z,22.5
2022-11-16T02:16:58.533Z,22.5
2022-11-16T02:18:00.244Z,22.6
2022-11-16T02:19:01.861Z,22.6
2022-11-16T02:20:03.477Z,22.6
2022-11-16T02:21:05.060Z,22.6
2022-11-16T02:22:06.694Z,22.6
2022-11-16T02:23:08.288Z,22.6
2022-11-16T02:24:10.009Z,22.6
2022-11-16T02:25:11.555Z,22.6
2022-11-16T02:26:13.201Z,22.6
2022-11-16T02:27:14.844Z,22.6
2022-11-16T02:28:16.393Z,22.6
2022-11-16T02:29:18.033Z,22.6
2022-11-16T02:30:19.591Z,22.6
2022-11-16T02:31:21.322Z,22.6
2022-11-16T02:32:23.072Z,22.6
2022-11-16T02:33:24.716Z,22.6
2022-11-16T02:34:26.359Z,22.7
2022-11-16T02:35:28.007Z,22.7
2022-11-16T02:36:29.560Z,22.7
2022-11-16T02:37:31.227Z,22.7
2022-11-16T02:38:33.812Z,22.6
2022-11-16T02:39:36.737Z,22.6
2022-11-16T02:40:38.422Z,22.7
2022-11-16T02:41:39.976Z,22.7
2022-11-16T02:42:41.570Z,22.7
2022-11-16T02:43:43.396Z,22.7
2022-11-16T02:44:45.169Z,22.7
2022-11-16T02:45:46.817Z,22.7
2022-11-16T02:46:48.396Z,22.7
2022-11-16T02:47:49.994Z,22.7
2022-11-16T02:48:51.617Z,22.7
2022-11-16T02:49:53.271Z,22.7
2022-11-16T02:50:54.905Z,22.7
2022-11-16T02:51:56.595Z,22.7
2022-11-16T02:52:58.143Z,22.8
2022-11-16T02:54:00.002Z,22.8
2022-11-16T02:55:01.827Z,22.7
2022-11-16T02:56:03.574Z,22.7
2022-11-16T02:57:05.191Z,22.7
2022-11-16T02:58:09.712Z,22.7
2022-11-16T02:59:17.728Z,22.7
2022-11-16T03:00:19.493Z,22.7
2022-11-16T03:01:21.141Z,22.7
2022-11-16T03:02:23.346Z,22.7
2022-11-16T03:03:25.026Z,22.7
2022-11-16T03:04:26.634Z,22.7
2022-11-16T03:05:28.201Z,22.7
2022-11-16T03:06:29.918Z,22.7
2022-11-16T03:07:31.611Z,22.8
2022-11-16T03:08:34.121Z,22.7
2022-11-16T03:09:36.823Z,22.7
2022-11-16T03:10:38.697Z,22.7
2022-11-16T03:11:40.433Z,22.8
2022-11-16T03:12:42.190Z,22.8
2022-11-16T03:13:43.730Z,22.8
2022-11-16T03:14:45.258Z,22.8
2022-11-16T03:15:47.122Z,22.8
2022-11-16T03:16:48.764Z,22.8
2022-11-16T03:17:50.410Z,22.8
2022-11-16T03:18:52.157Z,22.8
2022-11-16T03:19:53.809Z,22.8
2022-11-16T03:20:55.413Z,22.8
2022-11-16T03:21:56.990Z,22.8
2022-11-16T03:22:58.707Z,22.8
2022-11-16T03:24:00.384Z,22.8
2022-11-16T03:25:02.156Z,22.8
2022-11-16T03:26:03.984Z,22.8
2022-11-16T03:27:05.655Z,22.8
2022-11-16T03:28:07.276Z,22.8
2022-11-16T03:29:08.889Z,22.8
2022-11-16T03:30:10.430Z,22.8
2022-11-16T03:31:12.174Z,22.8
2022-11-16T03:32:13.860Z,22.9
2022-11-16T03:33:15.497Z,22.9
2022-11-16T03:34:17.172Z,22.9
2022-11-16T03:35:18.890Z,22.9
2022-11-16T03:36:20.437Z,22.9
2022-11-16T03:37:22.082Z,22.9
2022-11-16T03:38:23.620Z,22.9
2022-11-16T03:39:25.267Z,22.9
2022-11-16T03:40:27.015Z,22.9
2022-11-16T03:41:28.864Z,22.9
2022-11-16T03:42:30.472Z,22.9
2022-11-16T03:43:32.154Z,22.9
2022-11-16T03:44:33.904Z,22.9
2022-11-16T03:45:35.547Z,22.9
2022-11-16T03:46:37.094Z,22.9
2022-11-16T03:47:38.835Z,22.9
2022-11-16T03:48:40.588Z,23
2022-11-16T03:49:42.212Z,22.9
2022-11-16T03:50:43.845Z,22.9
2022-11-16T03:51:45.419Z,22.9
2022-11-16T03:52:47.062Z,22.9
2022-11-16T03:53:48.625Z,22.9
2022-11-16T03:54:50.401Z,22.9
2022-11-16T03:55:52.023Z,23
2022-11-16T03:56:53.850Z,22.9
2022-11-16T03:57:55.495Z,22.9
2022-11-16T03:58:57.140Z,22.9
2022-11-16T03:59:58.787Z,22.9
2022-11-16T04:01:00.864Z,22.9
2022-11-16T04:02:02.905Z,22.9
2022-11-16T04:03:04.650Z,22.9
2022-11-16T04:04:06.388Z,23
2022-11-16T04:05:08.076Z,23
2022-11-16T04:06:09.786Z,23
2022-11-16T04:07:11.575Z,22.9
2022-11-16T04:08:13.590Z,23
2022-11-16T04:09:15.338Z,23
2022-11-16T04:10:16.921Z,22.9
2022-11-16T04:11:18.585Z,22.9
2022-11-16T04:12:20.372Z,22.9
2022-11-16T04:13:21.986Z,22.9
2022-11-16T04:14:23.531Z,22.9
2022-11-16T04:15:25.155Z,23
2022-11-16T04:16:29.779Z,23
2022-11-16T04:17:31.565Z,23
2022-11-16T04:18:33.671Z,23
2022-11-16T04:19:36.601Z,23
2022-11-16T04:20:38.232Z,23
2022-11-16T04:21:39.892Z,23
2022-11-16T04:22:41.539Z,23
2022-11-16T04:23:43.288Z,23
2022-11-16T04:24:44.951Z,23
2022-11-16T04:25:46.577Z,23
2022-11-16T04:26:48.309Z,23
2022-11-16T04:27:50.277Z,23
2022-11-16T04:28:52.035Z,23
2022-11-16T04:29:53.668Z,23
2022-11-16T04:30:55.313Z,23
2022-11-16T04:31:56.949Z,23
2022-11-16T04:32:58.581Z,22.9
2022-11-16T04:34:00.323Z,22.8
2022-11-16T04:35:02.102Z,22.9
2022-11-16T04:36:03.799Z,22.9
2022-11-16T04:37:05.391Z,22.8
2022-11-16T04:38:07.048Z,22.9
2022-11-16T04:39:08.853Z,22.9
2022-11-16T04:40:10.532Z,23
2022-11-16T04:41:12.143Z,23
2022-11-16T04:42:13.941Z,23.1
2022-11-16T04:43:15.875Z,23
2022-11-16T04:44:17.670Z,23.1
2022-11-16T04:45:19.330Z,23.1
2022-11-16T04:46:20.981Z,23.1
2022-11-16T04:47:22.617Z,23.2
2022-11-16T04:48:24.329Z,23.2
2022-11-16T04:49:25.880Z,23.1
2022-11-16T04:50:27.466Z,23.2
2022-11-16T04:51:29.244Z,23.2
2022-11-16T04:52:30.964Z,23.3
2022-11-16T04:53:32.850Z,23.3
2022-11-16T04:54:34.464Z,23.3
2022-11-16T04:55:36.239Z,23.2
2022-11-16T04:56:38.088Z,23.3
2022-11-16T04:57:39.663Z,23.3
2022-11-16T04:58:41.451Z,23.3
2022-11-16T04:59:43.328Z,23.3
2022-11-16T05:00:45.109Z,23.3
2022-11-16T05:01:46.857Z,23.3
2022-11-16T05:02:48.894Z,23.2
2022-11-16T05:03:50.492Z,23.3
2022-11-16T05:04:52.053Z,23.3
2022-11-16T05:05:53.720Z,23.3
2022-11-16T05:06:55.575Z,23.4
2022-11-16T05:07:57.561Z,23.3
2022-11-16T05:08:59.204Z,23.5
2022-11-16T05:10:00.883Z,23.6
2022-11-16T05:11:02.660Z,23.6
2022-11-16T05:12:04.446Z,23.6
2022-11-16T05:13:06.330Z,23.7
2022-11-16T05:14:08.104Z,23.6
2022-11-16T05:15:09.815Z,23.6
2022-11-16T05:16:11.502Z,23.7
2022-11-16T05:17:13.218Z,23.8
2022-11-16T05:18:14.995Z,23.7
2022-11-16T05:19:16.574Z,23.8
2022-11-16T05:20:18.383Z,23.9
2022-11-16T05:21:20.136Z,23.9
2022-11-16T05:22:21.778Z,24
2022-11-16T05:23:23.389Z,24
2022-11-16T05:24:25.013Z,24
2022-11-16T05:25:26.612Z,24
2022-11-16T05:26:28.363Z,24.1
2022-11-16T05:27:30.048Z,24
2022-11-16T05:28:32.205Z,23.9
2022-11-16T05:29:35.150Z,23.9
2022-11-16T05:30:36.776Z,23.9
2022-11-16T05:31:40.798Z,24
2022-11-16T05:32:42.534Z,24.1
2022-11-16T05:33:44.291Z,24.1
2022-11-16T05:34:46.070Z,24.2
2022-11-16T05:35:47.625Z,24.1
2022-11-16T05:36:49.525Z,24.1
2022-11-16T05:37:51.178Z,24
2022-11-16T05:38:56.587Z,24.2
2022-11-16T05:39:58.320Z,24.1
2022-11-16T05:41:00.100Z,24
2022-11-16T05:42:01.858Z,24
2022-11-16T05:43:03.696Z,23.9
2022-11-16T05:44:05.360Z,23.9
2022-11-16T05:45:07.192Z,24
2022-11-16T05:46:08.939Z,24
2022-11-16T05:47:10.558Z,23.9
2022-11-16T05:48:12.098Z,23.9
2022-11-16T05:49:13.734Z,24
2022-11-16T05:50:15.423Z,24
2022-11-16T05:51:17.168Z,24.1
2022-11-16T05:52:18.815Z,24.2
2022-11-16T05:53:20.455Z,24.1
2022-11-16T05:54:22.169Z,24
2022-11-16T05:55:23.962Z,24
2022-11-16T05:56:25.625Z,24
2022-11-16T05:57:27.597Z,24
2022-11-16T05:58:29.295Z,24
2022-11-16T05:59:31.069Z,23.9
2022-11-16T06:00:32.908Z,23.9
2022-11-16T06:01:34.477Z,24
2022-11-16T06:02:36.228Z,24
2022-11-16T06:03:38.346Z,23.9
2022-11-16T06:04:40.123Z,23.9
2022-11-16T06:05:42.035Z,23.9
2022-11-16T06:06:43.688Z,23.9
2022-11-16T06:07:45.332Z,23.9
2022-11-16T06:08:47.080Z,23.8
2022-11-16T06:09:48.833Z,23.8
2022-11-16T06:10:50.371Z,23.8
2022-11-16T06:11:52.000Z,23.8
2022-11-16T06:12:53.965Z,23.8
2022-11-16T06:13:55.618Z,23.4
2022-11-16T06:14:57.257Z,23.2
2022-11-16T06:15:59.911Z,23.2
2022-11-16T06:17:02.289Z,23.7
2022-11-16T06:18:03.965Z,23.8
2022-11-16T06:19:05.690Z,23.8
2022-11-16T06:20:07.441Z,23.8
2022-11-16T06:21:09.185Z,23.8
2022-11-16T06:22:11.032Z,23.9
2022-11-16T06:23:12.744Z,23.9
2022-11-16T06:24:14.420Z,23.9
2022-11-16T06:25:16.177Z,23.9
2022-11-16T06:26:17.814Z,23.9
2022-11-16T06:27:19.562Z,23.9
2022-11-16T06:28:21.213Z,23.9
2022-11-16T06:29:23.285Z,23.8
2022-11-16T06:30:24.989Z,23.8
2022-11-16T06:31:27.287Z,23.8
2022-11-16T06:32:29.326Z,23.8
2022-11-16T06:33:34.086Z,23.8
2022-11-16T06:34:35.890Z,23.8
2022-11-16T06:35:37.643Z,23.8
2022-11-16T06:36:39.485Z,23.8
2022-11-16T06:37:41.105Z,23.8
2022-11-16T06:38:42.879Z,23.7
2022-11-16T06:39:44.526Z,23.7
2022-11-16T06:40:46.195Z,23.7
2022-11-16T06:41:48.633Z,23.7
2022-11-16T06:42:51.408Z,23.7
2022-11-16T06:43:53.199Z,23.7
2022-11-16T06:44:54.767Z,23.7
2022-11-16T06:45:56.448Z,23.7
2022-11-16T06:46:58.215Z,23.7
2022-11-16T06:48:01.156Z,23.7
2022-11-16T06:49:02.776Z,23.7
2022-11-16T06:50:04.569Z,23.7
2022-11-16T06:51:06.622Z,23.7
2022-11-16T06:52:08.262Z,23.7
2022-11-16T06:53:09.812Z,23.7
2022-11-16T06:54:11.424Z,23.7
2022-11-16T06:55:13.043Z,23.7
2022-11-16T06:56:14.743Z,23.7
2022-11-16T06:57:16.555Z,23.6
2022-11-16T06:58:18.320Z,23.6
2022-11-16T06:59:20.173Z,23.6
2022-11-16T07:00:22.044Z,23.6
2022-11-16T07:01:23.748Z,23.6
2022-11-16T07:02:26.191Z,23.6
2022-11-16T07:03:28.355Z,23.6
2022-11-16T07:04:30.157Z,23.6
2022-11-16T07:05:31.724Z,23.7
2022-11-16T07:06:33.266Z,23.6
2022-11-16T07:07:35.018Z,23.6
2022-11-16T07:08:37.281Z,23.6
2022-11-16T07:09:38.941Z,23.6
2022-11-16T07:10:40.648Z,23.6
2022-11-16T07:11:42.467Z,23.6
2022-11-16T07:12:44.244Z,23.6
2022-11-16T07:13:45.926Z,23.6
2022-11-16T07:14:47.631Z,23.6
2022-11-16T07:15:49.387Z,23.6
2022-11-16T07:16:59.145Z,23.7
2022-11-16T07:18:11.210Z,23.6
2022-11-16T07:19:13.056Z,23.6
2022-11-16T07:20:14.706Z,23.5
2022-11-16T07:21:16.346Z,23.5
2022-11-16T07:22:18.162Z,23.6
2022-11-16T07:23:19.738Z,23.6
2022-11-16T07:24:21.594Z,23.7
2022-11-16T07:25:23.233Z,23.7
2022-11-16T07:26:24.889Z,23.7
2022-11-16T07:27:26.531Z,23.7
2022-11-16T07:28:31.381Z,23.7
2022-11-16T07:29:34.422Z,23.7
2022-11-16T07:30:36.071Z,23.7
2022-11-16T07:31:38.214Z,23.6
2022-11-16T07:32:40.286Z,23.6
2022-11-16T07:33:42.157Z,23.6
2022-11-16T07:34:44.295Z,23.6
2022-11-16T07:35:45.858Z,23.7
2022-11-16T07:36:47.582Z,23.7
2022-11-16T07:37:49.371Z,23.7
2022-11-16T07:38:50.980Z,23.7
2022-11-16T07:39:52.620Z,23.7
2022-11-16T07:40:54.161Z,23.7
2022-11-16T07:41:55.909Z,23.7
2022-11-16T07:42:57.657Z,23.7
2022-11-16T07:43:59.202Z,23.7
2022-11-16T07:45:00.957Z,23.7
2022-11-16T07:46:48.970Z,23.6
2022-11-16T07:47:50.930Z,23.6
2022-11-16T07:48:52.854Z,23.6
2022-11-16T07:49:54.728Z,23.6
2022-11-16T07:50:56.382Z,23.6
2022-11-16T07:51:58.234Z,23.6
2022-11-16T07:52:59.976Z,23.6
2022-11-16T07:54:01.623Z,23.6
2022-11-16T07:55:03.274Z,23.6
2022-11-16T07:56:04.957Z,23.6
2022-11-16T07:57:06.570Z,23.6
2022-11-16T07:58:08.413Z,23.6
2022-11-16T07:59:10.050Z,23.6
2022-11-16T08:00:11.576Z,23.5
2022-11-16T08:01:13.283Z,23.6
2022-11-16T08:02:15.108Z,23.5
2022-11-16T08:03:24.852Z,23.5
2022-11-16T08:04:26.764Z,23.5
2022-11-16T08:05:28.934Z,23.5
2022-11-16T08:06:30.521Z,23.5
2022-11-16T08:07:32.264Z,23.5
2022-11-16T08:08:35.372Z,23.6
2022-11-16T08:09:38.268Z,23.7
2022-11-16T08:10:40.282Z,23.7
2022-11-16T08:11:42.064Z,23.7
2022-11-16T08:12:43.730Z,23.6
2022-11-16T08:13:45.482Z,23.6
2022-11-16T08:14:48.152Z,23.6
2022-11-16T08:15:49.724Z,23.7
2022-11-16T08:16:51.543Z,23.6
2022-11-16T08:17:53.259Z,23.7
2022-11-16T08:18:55.082Z,23.7
2022-11-16T08:19:56.809Z,23.7
2022-11-16T08:20:58.914Z,23.7
2022-11-16T08:22:00.623Z,23.8
2022-11-16T08:23:02.449Z,23.7
2022-11-16T08:24:04.192Z,23.8
2022-11-16T08:25:05.837Z,23.8
2022-11-16T08:26:07.580Z,23.8
2022-11-16T08:27:09.223Z,23.8
2022-11-16T08:28:10.862Z,23.9
2022-11-16T08:29:12.610Z,23.8
2022-11-16T08:30:14.271Z,23.8
2022-11-16T08:31:15.971Z,23.9
2022-11-16T08:32:17.661Z,23.8
2022-11-16T08:33:19.312Z,23.8
2022-11-16T08:34:20.886Z,23.8
2022-11-16T08:35:22.602Z,23.9
2022-11-16T08:36:24.641Z,23.7
2022-11-16T08:37:26.386Z,23.7
2022-11-16T08:38:28.148Z,23.8
2022-11-16T08:39:29.929Z,23.9
2022-11-16T08:40:31.524Z,23.9
2022-11-16T08:41:33.192Z,23.9
2022-11-16T08:42:43.592Z,23.9
2022-11-16T08:43:45.787Z,23.9
2022-11-16T08:44:47.511Z,23.9
2022-11-16T08:45:49.053Z,23.8
2022-11-16T08:46:50.726Z,23.9
2022-11-16T08:48:04.309Z,23.9
2022-11-16T08:49:06.203Z,23.9
2022-11-16T08:50:07.906Z,23.9
2022-11-16T08:51:19.400Z,23.9
2022-11-16T08:52:22.910Z,23.9
2022-11-16T08:53:24.555Z,23.9
2022-11-16T08:54:26.173Z,23.9
2022-11-16T08:55:27.870Z,23.9
2022-11-16T08:56:29.603Z,23.9
2022-11-16T08:57:31.357Z,23.9
2022-11-16T08:58:33.748Z,23.9
2022-11-16T08:59:36.659Z,23.9
2022-11-16T09:00:38.334Z,23.9
2022-11-16T09:01:39.970Z,23.8
2022-11-16T09:02:41.828Z,23.8
2022-11-16T09:03:43.516Z,23.9
2022-11-16T09:04:45.323Z,23.7
2022-11-16T09:05:46.960Z,23.7
2022-11-16T09:06:48.980Z,23.7
2022-11-16T09:07:51.055Z,23.7
2022-11-16T09:08:52.831Z,23.7
2022-11-16T09:09:54.475Z,23.8
2022-11-16T09:10:56.116Z,23.7
2022-11-16T09:11:57.803Z,23.9
2022-11-16T09:12:59.624Z,23.8
2022-11-16T09:14:01.358Z,23.8
2022-11-16T09:15:03.006Z,23.8
2022-11-16T09:16:04.582Z,23.7
2022-11-16T09:17:06.146Z,23.7
2022-11-16T09:18:07.938Z,23.8
2022-11-16T09:19:09.692Z,23.9
2022-11-16T09:20:11.431Z,23.7
2022-11-16T09:21:13.174Z,23.8
2022-11-16T09:22:15.051Z,23.9
2022-11-16T09:23:25.654Z,23.9
2022-11-16T09:24:27.742Z,23.9
2022-11-16T09:25:29.489Z,23.9
2022-11-16T09:26:31.449Z,23.9
2022-11-16T09:27:33.261Z,24
2022-11-16T09:28:35.649Z,24
2022-11-16T09:29:38.627Z,23.9
2022-11-16T09:30:40.479Z,23.9
2022-11-16T09:31:42.337Z,24
2022-11-16T09:32:44.289Z,24
2022-11-16T09:33:46.201Z,24
2022-11-16T09:34:47.778Z,23.8
2022-11-16T09:35:49.493Z,23.9
2022-11-16T09:36:51.269Z,23.9
2022-11-16T09:37:53.200Z,23.9
2022-11-16T09:39:30.862Z,23.8
2022-11-16T09:40:34.068Z,23.9
2022-11-16T09:41:35.804Z,23.8
2022-11-16T09:42:37.381Z,23.8
2022-11-16T09:43:46.718Z,24
2022-11-16T09:44:49.234Z,23.9
2022-11-16T09:45:50.869Z,23.9
2022-11-16T09:46:52.453Z,24
2022-11-16T09:47:54.090Z,24
2022-11-16T09:48:55.865Z,24.1
2022-11-16T09:50:03.380Z,24.1
2022-11-16T09:51:06.019Z,24.1
2022-11-16T09:52:07.802Z,24.1
2022-11-16T09:53:09.822Z,24
2022-11-16T09:54:11.768Z,24
2022-11-16T09:55:16.405Z,24
2022-11-16T09:56:22.754Z,24
2022-11-16T09:57:24.789Z,24
2022-11-16T09:58:26.336Z,24
2022-11-16T09:59:28.081Z,24
2022-11-16T10:00:30.136Z,24
2022-11-16T10:01:32.084Z,24
2022-11-16T10:02:33.946Z,24
2022-11-16T10:03:36.234Z,24
2022-11-16T10:04:38.669Z,24
2022-11-16T10:05:40.418Z,24
2022-11-16T10:06:42.279Z,24
2022-11-16T10:07:43.997Z,24
2022-11-16T10:08:45.744Z,24
2022-11-16T10:09:47.711Z,24
2022-11-16T10:10:49.458Z,24
2022-11-16T10:11:51.201Z,24
2022-11-16T10:12:53.057Z,24
2022-11-16T10:13:54.714Z,24
2022-11-16T10:15:05.091Z,24
2022-11-16T10:16:06.904Z,24
2022-11-16T10:17:08.686Z,23.9
2022-11-16T10:18:10.268Z,23.8
2022-11-16T10:19:12.088Z,23.9
2022-11-16T10:20:14.007Z,23.9
2022-11-16T10:21:15.844Z,24
2022-11-16T10:22:17.592Z,24.1
2022-11-16T10:23:19.373Z,23.8
2022-11-16T10:24:21.309Z,23.8
2022-11-16T10:25:23.144Z,23.8
2022-11-16T10:26:24.786Z,23.8
2022-11-16T10:27:26.535Z,23.8
2022-11-16T10:28:28.234Z,23.8
2022-11-16T10:29:30.028Z,23.8
2022-11-16T10:30:31.766Z,23.8
2022-11-16T10:31:33.427Z,23.8
2022-11-16T10:32:35.105Z,23.7
2022-11-16T10:33:37.687Z,23.7
2022-11-16T10:34:39.695Z,23.8
2022-11-16T10:35:41.407Z,23.7
2022-11-16T10:36:43.149Z,23.7
2022-11-16T10:37:44.826Z,23.7
2022-11-16T10:38:46.476Z,23.7
2022-11-16T10:39:48.236Z,23.7
2022-11-16T10:40:50.274Z,23.8
2022-11-16T10:41:51.845Z,23.8
2022-11-16T10:42:53.672Z,23.8
2022-11-16T10:43:55.407Z,24
2022-11-16T10:44:56.938Z,23.9
2022-11-16T10:45:58.562Z,23.9
2022-11-16T10:47:00.351Z,23.7
2022-11-16T10:48:02.143Z,23.7
2022-11-16T10:49:03.952Z,23.8
2022-11-16T10:50:05.624Z,23.7
2022-11-16T10:51:07.238Z,23.7
2022-11-16T10:52:08.884Z,23.7
2022-11-16T10:53:10.529Z,23.7
2022-11-16T10:54:12.379Z,23.7
2022-11-16T10:55:14.145Z,23.7
2022-11-16T10:56:16.010Z,23.7
2022-11-16T10:57:17.772Z,23.8
2022-11-16T10:58:19.503Z,23.9
2022-11-16T10:59:21.603Z,23.8
2022-11-16T11:00:23.735Z,23.7
2022-11-16T11:01:25.649Z,23.8
2022-11-16T11:02:27.602Z,23.8
2022-11-16T11:03:29.358Z,23.8
2022-11-16T11:04:30.892Z,23.7
2022-11-16T11:05:32.496Z,23.7
2022-11-16T11:06:34.163Z,23.7
2022-11-16T11:07:36.070Z,23.7
2022-11-16T11:08:37.980Z,23.7
2022-11-16T11:09:39.823Z,23.7
2022-11-16T11:10:41.807Z,23.9
2022-11-16T11:11:43.728Z,23.9
2022-11-16T11:12:45.469Z,23.9
2022-11-16T11:13:47.121Z,24.1
2022-11-16T11:14:48.831Z,24.1
2022-11-16T11:15:50.454Z,25.1
2022-11-16T11:16:52.017Z,23.9
2022-11-16T11:17:53.702Z,24.1
2022-11-16T11:18:55.254Z,24.1
2022-11-16T11:19:57.087Z,24.1
2022-11-16T11:20:58.638Z,24
2022-11-16T11:22:00.387Z,23.9
2022-11-16T11:23:01.930Z,24
2022-11-16T11:24:44.994Z,23.9
2022-11-16T11:25:47.633Z,24
2022-11-16T11:26:49.632Z,23.9
2022-11-16T11:27:51.408Z,24
2022-11-16T11:28:53.063Z,23.9
2022-11-16T11:29:54.810Z,24
2022-11-16T11:30:56.538Z,24.1
2022-11-16T11:31:58.310Z,24.1
2022-11-16T11:33:00.157Z,24.1
2022-11-16T11:34:01.894Z,24.1
2022-11-16T11:35:03.660Z,24.2
2022-11-16T11:36:05.290Z,24.1
2022-11-16T11:37:07.048Z,24.2
2022-11-16T11:38:08.883Z,24.2
2022-11-16T11:39:10.654Z,24.2
2022-11-16T11:40:12.482Z,24.3
2022-11-16T11:41:14.362Z,24.4
2022-11-16T11:42:16.305Z,24.3
2022-11-16T11:43:19.274Z,24.4
2022-11-16T11:44:20.923Z,24.4
2022-11-16T11:45:23.190Z,24.3
2022-11-16T11:47:28.957Z,24.4
2022-11-16T11:49:01.966Z,24.5
2022-11-16T11:50:06.407Z,24.4
2022-11-16T11:51:07.990Z,24.6
2022-11-16T11:52:09.556Z,24.5
2022-11-16T11:53:11.129Z,24.3
2022-11-16T11:54:12.926Z,24.4
2022-11-16T11:55:14.852Z,24.5
2022-11-16T11:56:16.818Z,24.6
2022-11-16T11:57:18.556Z,24.6
2022-11-16T11:58:20.451Z,24.7
2022-11-16T11:59:22.044Z,24.7
2022-11-16T12:00:24.179Z,24.7
2022-11-16T12:01:26.257Z,24.7
2022-11-16T12:02:27.913Z,24.7
2022-11-16T12:03:29.572Z,24.8
2022-11-16T12:04:31.308Z,24.8
2022-11-16T12:05:33.054Z,25
2022-11-16T12:06:34.771Z,25
2022-11-16T12:07:45.197Z,24.8
2022-11-16T12:08:46.980Z,25
2022-11-16T12:09:48.741Z,24.9
2022-11-16T12:10:50.372Z,24.9
2022-11-16T12:11:52.162Z,24.9
2022-11-16T12:12:53.880Z,24.9
2022-11-16T12:13:55.898Z,25
2022-11-16T12:14:57.579Z,24.9
2022-11-16T12:15:59.248Z,25
2022-11-16T12:17:01.469Z,25.2
2022-11-16T12:18:03.198Z,25.1
2022-11-16T12:19:05.094Z,25.2
2022-11-16T12:20:06.838Z,25.1
2022-11-16T12:21:08.574Z,25
2022-11-16T12:22:10.161Z,25.2
2022-11-16T12:23:11.867Z,25.4
2022-11-16T12:24:13.583Z,25.3
2022-11-16T12:25:15.185Z,25.3
2022-11-16T12:26:17.527Z,25.4
2022-11-16T12:27:19.397Z,25.3
2022-11-16T12:28:21.328Z,25.2
2022-11-16T12:29:23.597Z,25.2
2022-11-16T12:30:25.195Z,25.3
2022-11-16T12:31:26.972Z,25.3
2022-11-16T12:32:28.735Z,25.2
2022-11-16T12:33:30.811Z,25.3
2022-11-16T12:34:33.289Z,25.2
2022-11-16T12:35:34.950Z,25.3
2022-11-16T12:36:36.744Z,25.2
2022-11-16T12:37:38.434Z,25.4
2022-11-16T12:38:39.986Z,25.5
2022-11-16T12:39:41.662Z,25.4
2022-11-16T12:40:43.383Z,25.6
2022-11-16T12:41:45.259Z,25.4
2022-11-16T12:42:47.025Z,25.3
2022-11-16T12:43:48.760Z,25.6
2022-11-16T12:44:50.645Z,25.5
2022-11-16T12:45:52.251Z,25.4
2022-11-16T12:46:53.995Z,25.4
2022-11-16T12:47:55.555Z,25.5
2022-11-16T12:48:57.183Z,25.5
2022-11-16T12:49:58.842Z,25.6
2022-11-16T12:51:00.597Z,25.6
2022-11-16T12:52:02.426Z,25.6
2022-11-16T12:53:04.179Z,25.6
2022-11-16T12:54:05.929Z,25.5
2022-11-16T12:55:37.785Z,25.5
2022-11-16T12:56:39.728Z,25.6
2022-11-16T12:57:50.919Z,25.5
2022-11-16T12:58:52.646Z,25.5
2022-11-16T12:59:54.558Z,25.4
2022-11-16T13:00:56.305Z,25.5
2022-11-16T13:02:00.958Z,25.6
2022-11-16T13:03:02.718Z,25.6
2022-11-16T13:04:04.285Z,25.6
2022-11-16T13:05:05.897Z,25.7
2022-11-16T13:06:07.660Z,25.6
2022-11-16T13:07:11.681Z,25.7
2022-11-16T13:08:13.714Z,25.7
2022-11-16T13:09:15.264Z,25.6
2022-11-16T13:10:16.992Z,25.5
2022-11-16T13:11:18.844Z,25.5
2022-11-16T13:12:20.905Z,25.6
2022-11-16T13:13:37.258Z,25.6
2022-11-16T13:14:39.103Z,25.6
2022-11-16T13:15:41.195Z,25.6
2022-11-16T13:16:42.796Z,25.6
2022-11-16T13:17:44.478Z,25.7
2022-11-16T13:18:46.115Z,25.7
2022-11-16T13:19:47.769Z,25.8
2022-11-16T13:20:49.417Z,25.7
2022-11-16T13:21:50.951Z,25.7
2022-11-16T13:22:55.195Z,25.7
2022-11-16T13:23:56.749Z,25.8
2022-11-16T13:24:58.470Z,25.9
2022-11-16T13:26:00.218Z,25.9
2022-11-16T13:27:01.957Z,25.9
2022-11-16T13:28:03.921Z,25.8
2022-11-16T13:29:05.822Z,25.9
2022-11-16T13:30:07.505Z,25.9
2022-11-16T13:31:09.458Z,25.9
2022-11-16T13:32:11.201Z,25.8
2022-11-16T13:33:12.749Z,25.8
2022-11-16T13:34:14.596Z,25.8
2022-11-16T13:35:16.240Z,25.8
2022-11-16T13:36:17.959Z,25.9
2022-11-16T13:37:19.758Z,25.9
2022-11-16T13:38:21.455Z,25.9
2022-11-16T13:39:23.431Z,25.9
2022-11-16T13:40:25.081Z,25.9
2022-11-16T13:41:26.769Z,25.9
2022-11-16T13:42:28.579Z,25.9
2022-11-16T13:43:30.433Z,25.9
2022-11-16T13:44:32.296Z,26
2022-11-16T13:45:34.032Z,25.9
2022-11-16T13:46:57.009Z,25.9
2022-11-16T13:47:59.146Z,25.9
2022-11-16T13:49:00.711Z,25.8
2022-11-16T13:50:02.286Z,25.8
2022-11-16T13:51:03.885Z,25.9
2022-11-16T13:52:24.963Z,25.8
2022-11-16T13:54:56.387Z,25.8
2022-11-16T13:55:58.794Z,25.6
2022-11-16T13:57:00.497Z,25.6